Time;durP1;ratioP1;P1;durP2;ratioP2;P2;SDS_P1;SDS_P2;PMS_P1;PMS_P2;Temp;Humidity;BMP_temperature;BMP_pressure;BME280_temperature;BME280_humidity;BME280_pressure;Samples;Min_cycle;Max_cycle;Signal;HPM_P1;HPM_P2
2022/05/16 00:02:21;;;;;;;16.33;4.82;;;14.50;99.90;;;;;;4930740;29;20061;-61
2022/05/16 00:04:49;;;;;;;28.00;5.32;;;14.40;99.90;;;;;;4947345;29;20432;-63
2022/05/16 00:07:16;;;;;;;15.82;5.03;;;15.00;99.90;;;;;;4947097;29;20094;-61
2022/05/16 00:09:42;;;;;;;16.45;5.47;;;14.50;99.90;;;;;;4947317;29;20035;-61
2022/05/16 00:12:09;;;;;;;14.15;4.90;;;15.10;99.90;;;;;;4947443;29;20036;-61
2022/05/16 00:14:36;;;;;;;15.52;5.05;;;14.60;99.90;;;;;;4930141;29;20333;-61
2022/05/16 00:17:03;;;;;;;16.17;5.45;;;14.90;99.90;;;;;;4947311;29;20032;-62
2022/05/16 00:19:29;;;;;;;12.73;4.72;;;14.60;99.90;;;;;;4946949;29;20055;-61
2022/05/16 00:21:56;;;;;;;15.93;5.38;;;14.40;99.90;;;;;;4947350;29;20043;-61
2022/05/16 00:24:26;;;;;;;15.82;5.18;;;;;;;;;;4947256;29;20055;-61
2022/05/16 00:26:52;;;;;;;17.65;4.75;;;14.50;99.90;;;;;;4946518;29;20115;-61
2022/05/16 00:29:18;;;;;;;11.20;4.60;;;14.40;99.90;;;;;;4947038;29;20040;-61
2022/05/16 00:31:44;;;;;;;17.25;5.32;;;13.80;99.90;;;;;;4946981;29;20086;-61
2022/05/16 00:34:10;;;;;;;13.95;5.10;;;;;;;;;;4947446;29;20027;-61
2022/05/16 00:36:36;;;;;;;14.85;5.07;;;;;;;;;;4946660;29;20218;-61
2022/05/16 00:39:02;;;;;;;17.15;5.32;;;14.30;99.90;;;;;;4947019;29;20106;-63
2022/05/16 00:41:28;;;;;;;13.25;4.82;;;14.60;99.90;;;;;;4946356;29;20054;-61
2022/05/16 00:43:58;;;;;;;11.60;4.60;;;14.50;99.90;;;;;;4930127;29;20040;-61
2022/05/16 00:46:27;;;;;;;13.40;4.63;;;14.30;99.90;;;;;;4946753;29;20040;-61
2022/05/16 00:48:53;;;;;;;12.25;4.97;;;;;;;;;;4946492;29;20411;-62
2022/05/16 00:51:24;;;;;;;11.93;4.80;;;14.30;99.90;;;;;;4946967;29;20046;-61
2022/05/16 00:53:54;;;;;;;11.07;4.90;;;14.50;99.90;;;;;;4946957;29;20047;-61
2022/05/16 00:56:23;;;;;;;10.40;4.65;;;14.20;99.90;;;;;;4946477;29;20054;-61
2022/05/16 00:58:49;;;;;;;11.55;4.80;;;14.20;99.90;;;;;;4946372;29;20036;-61
2022/05/16 01:06:47;;;;;;;11.00;4.68;;;14.50;99.90;;;;;;4946169;29;20051;-61
2022/05/16 01:09:12;;;;;;;11.20;4.78;;;14.30;99.90;;;;;;4946465;29;20079;-61
2022/05/16 01:11:39;;;;;;;14.38;4.97;;;14.20;99.90;;;;;;4945918;29;20044;-64
2022/05/16 01:14:05;;;;;;;13.20;4.72;;;14.30;99.90;;;;;;4946197;29;20031;-63
2022/05/16 01:16:31;;;;;;;13.32;4.50;;;14.50;99.90;;;;;;4929176;29;20098;-61
2022/05/16 01:18:57;;;;;;;12.85;4.45;;;14.10;99.90;;;;;;4946522;29;20043;-62
2022/05/16 01:21:32;;;;;;;11.73;4.60;;;14.20;99.90;;;;;;4918460;29;20038;-62
2022/05/16 01:24:16;;;;;;;13.50;4.50;;;14.40;99.90;;;;;;4964426;29;20055;-61
2022/05/16 01:26:42;;;;;;;12.63;4.40;;;14.30;99.90;;;;;;4965039;29;20051;-62
2022/05/16 01:29:09;;;;;;;16.95;5.03;;;14.10;99.90;;;;;;4965200;29;20321;-61
2022/05/16 01:31:35;;;;;;;13.45;4.80;;;14.00;99.90;;;;;;4965257;29;20090;-61
2022/05/16 01:34:02;;;;;;;11.38;4.47;;;14.40;99.90;;;;;;4965080;29;20030;-62
2022/05/16 01:36:28;;;;;;;14.00;4.90;;;;;;;;;;4964777;29;20105;-58
2022/05/16 01:38:54;;;;;;;13.10;4.47;;;14.00;99.90;;;;;;4964890;29;20136;-59
2022/05/16 01:41:22;;;;;;;11.25;4.35;;;14.00;99.90;;;;;;4965381;29;20344;-58
2022/05/16 01:43:55;;;;;;;11.63;4.50;;;13.50;99.90;;;;;;4947659;29;20276;-58
2022/05/16 01:46:27;;;;;;;12.95;4.60;;;14.00;99.90;;;;;;4964708;29;20074;-58
2022/05/16 01:48:53;;;;;;;12.35;4.80;;;14.30;99.90;;;;;;4964930;29;20321;-58
2022/05/16 01:51:19;;;;;;;12.40;4.45;;;13.80;99.90;;;;;;4947944;29;20047;-58
2022/05/16 01:53:46;;;;;;;16.73;4.47;;;14.30;99.90;;;;;;4964002;29;20315;-58
2022/05/16 01:56:12;;;;;;;16.00;4.70;;;14.20;99.90;;;;;;4964844;29;20042;-58
2022/05/16 01:58:40;;;;;;;11.52;4.32;;;;;;;;;;4947254;29;20110;-58
2022/05/16 02:01:06;;;;;;;11.40;4.40;;;13.90;99.90;;;;;;4964781;29;20051;-58
2022/05/16 02:03:32;;;;;;;13.35;4.68;;;13.70;99.90;;;;;;4964904;29;20186;-58
2022/05/16 02:05:57;;;;;;;11.25;4.55;;;14.00;99.90;;;;;;4964597;29;20031;-58
2022/05/16 02:08:23;;;;;;;14.88;4.68;;;13.70;99.90;;;;;;4946454;29;20074;-58
2022/05/16 02:10:49;;;;;;;17.63;4.35;;;13.10;99.90;;;;;;4964743;28;20031;-58
2022/05/16 02:13:16;;;;;;;14.23;4.32;;;13.80;99.90;;;;;;4964302;29;20037;-58
2022/05/16 02:15:44;;;;;;;14.02;4.50;;;13.80;99.90;;;;;;4964176;29;20039;-58
2022/05/16 02:18:10;;;;;;;11.40;4.13;;;13.60;99.90;;;;;;4964411;29;20043;-58
2022/05/16 02:20:36;;;;;;;12.70;4.28;;;14.00;99.90;;;;;;4947139;29;20042;-58
2022/05/16 02:26:11;;;;;;;12.57;4.35;;;13.60;99.90;;;;;;4905305;29;20052;-58
2022/05/16 02:28:37;;;;;;;11.18;4.13;;;13.70;99.90;;;;;;4904482;29;20446;-58
2022/05/16 02:31:03;;;;;;;14.68;4.28;;;13.90;99.90;;;;;;4904922;29;20048;-58
2022/05/16 02:33:28;;;;;;;14.38;4.15;;;13.70;99.90;;;;;;4904961;29;20104;-58
2022/05/16 02:35:54;;;;;;;11.40;4.30;;;13.70;99.90;;;;;;4905167;29;20075;-58
2022/05/16 02:38:20;;;;;;;10.45;3.90;;;;;;;;;;4904345;29;20099;-58
2022/05/16 02:40:46;;;;;;;11.30;3.95;;;;;;;;;;4904945;29;20037;-58
2022/05/16 02:43:12;;;;;;;13.02;4.07;;;13.70;99.90;;;;;;4904909;29;20063;-58
2022/05/16 02:45:38;;;;;;;11.35;4.28;;;13.70;99.90;;;;;;4904875;29;20052;-58
2022/05/16 02:48:04;;;;;;;11.30;3.67;;;13.90;99.90;;;;;;4904507;29;20044;-58
2022/05/16 02:50:30;;;;;;;10.20;4.00;;;13.80;99.90;;;;;;4904579;29;20073;-58
2022/05/16 02:52:56;;;;;;;10.57;4.07;;;13.60;99.90;;;;;;4904400;29;20040;-58
2022/05/16 02:55:22;;;;;;;10.82;4.10;;;13.60;99.90;;;;;;4904392;29;20056;-58
2022/05/16 02:57:48;;;;;;;11.05;3.95;;;;;;;;;;4955653;29;20043;-58
2022/05/16 03:00:16;;;;;;;12.85;3.72;;;13.30;99.90;;;;;;4963848;29;20129;-58
2022/05/16 03:02:42;;;;;;;15.05;4.15;;;;;;;;;;4963416;29;20043;-58
2022/05/16 03:05:09;;;;;;;12.70;4.50;;;13.50;99.90;;;;;;4963927;29;20039;-58
2022/05/16 03:07:35;;;;;;;10.63;3.80;;;13.60;99.90;;;;;;4962914;29;20031;-58
2022/05/16 03:10:02;;;;;;;10.80;3.70;;;12.80;99.90;;;;;;4946474;29;20074;-58
2022/05/16 03:12:28;;;;;;;13.45;4.05;;;12.70;99.90;;;;;;4963625;29;20031;-58
2022/05/16 03:14:53;;;;;;;12.80;4.30;;;13.40;99.90;;;;;;4963714;29;20030;-58
2022/05/16 03:17:19;;;;;;;12.77;3.70;;;13.70;99.90;;;;;;4963744;29;20032;-58
2022/05/16 03:19:45;;;;;;;15.02;3.60;;;;;;;;;;4946201;29;20078;-58
2022/05/16 03:22:12;;;;;;;10.73;4.10;;;13.70;99.90;;;;;;4963280;29;20035;-58
2022/05/16 03:24:37;;;;;;;10.75;4.10;;;13.60;99.90;;;;;;4936395;29;20059;-58
2022/05/16 03:27:05;;;;;;;11.80;4.30;;;13.00;99.90;;;;;;4948459;29;20254;-58
2022/05/16 03:29:31;;;;;;;12.05;3.85;;;13.40;99.90;;;;;;4948054;29;20046;-58
2022/05/16 03:31:56;;;;;;;11.65;4.22;;;13.20;99.90;;;;;;4948068;29;20032;-58
2022/05/16 03:34:22;;;;;;;11.38;4.10;;;13.30;99.90;;;;;;4947527;29;20111;-58
2022/05/16 03:36:48;;;;;;;10.63;3.92;;;13.40;99.90;;;;;;4948318;29;20036;-58
2022/05/16 03:41:58;;;;;;;12.77;4.07;;;13.10;99.90;;;;;;4947913;29;20059;-58
2022/05/16 03:44:24;;;;;;;12.18;4.53;;;;;;;;;;4947627;29;20036;-58
2022/05/16 03:46:51;;;;;;;9.50;3.80;;;13.60;99.90;;;;;;4948149;29;20036;-58
2022/05/16 03:49:18;;;;;;;10.70;4.20;;;13.50;99.90;;;;;;4947359;29;20305;-58
2022/05/16 03:51:44;;;;;;;11.57;4.15;;;13.70;99.90;;;;;;4930576;29;20029;-58
2022/05/16 03:54:10;;;;;;;9.45;3.88;;;13.20;99.90;;;;;;4914834;29;20289;-58
2022/05/16 03:56:36;;;;;;;15.05;3.70;;;13.20;99.90;;;;;;4947532;29;20062;-58
2022/05/16 03:59:02;;;;;;;14.18;3.80;;;13.40;99.90;;;;;;4947959;29;20046;-58
2022/05/16 04:01:28;;;;;;;12.57;4.32;;;13.50;99.90;;;;;;4947431;29;20047;-58
2022/05/16 04:03:54;;;;;;;10.90;3.65;;;13.30;99.90;;;;;;4946962;29;20074;-58
2022/05/16 04:06:20;;;;;;;14.25;4.47;;;13.30;99.90;;;;;;4947521;29;20064;-58
2022/05/16 04:08:46;;;;;;;11.52;4.25;;;12.50;99.90;;;;;;4947710;29;20249;-58
2022/05/16 04:11:15;;;;;;;12.65;4.00;;;13.50;99.90;;;;;;4947721;29;20035;-61
2022/05/16 04:13:41;;;;;;;12.73;4.38;;;13.80;99.90;;;;;;4947158;29;20388;-61
2022/05/16 04:16:07;;;;;;;9.68;3.75;;;13.60;99.90;;;;;;4914572;29;20285;-61
2022/05/16 04:18:35;;;;;;;11.18;3.85;;;13.00;99.90;;;;;;4946711;29;20085;-61
2022/05/16 04:21:01;;;;;;;11.88;3.83;;;;;;;;;;4947160;29;20055;-61
2022/05/16 04:23:27;;;;;;;9.27;3.70;;;;;;;;;;4946662;29;20040;-61
2022/05/16 04:25:52;;;;;;;15.90;4.20;;;13.20;99.90;;;;;;4947256;29;20051;-61
2022/05/16 04:28:18;;;;;;;10.13;3.75;;;13.70;99.90;;;;;;4930264;29;20066;-61
2022/05/16 04:30:44;;;;;;;13.63;3.72;;;13.40;99.90;;;;;;4946868;29;20281;-61
2022/05/16 04:33:09;;;;;;;10.25;3.88;;;13.90;99.90;;;;;;4946442;29;20082;-61
2022/05/16 04:35:38;;;;;;;9.27;3.55;;;13.40;99.90;;;;;;4946666;29;20039;-58
2022/05/16 04:38:04;;;;;;;13.52;4.40;;;13.50;99.90;;;;;;4947254;29;20031;-61
2022/05/16 04:40:30;;;;;;;10.10;3.92;;;13.60;99.90;;;;;;4946935;29;20043;-61
2022/05/16 04:42:58;;;;;;;14.10;3.70;;;14.20;99.90;;;;;;4946876;29;20048;-61
2022/05/16 04:45:27;;;;;;;9.93;3.70;;;14.70;99.90;;;;;;4946698;29;20053;-58
2022/05/16 04:47:57;;;;;;;12.55;3.88;;;15.70;99.90;;;;;;4929413;29;20055;-58
2022/05/16 04:50:28;;;;;;;11.88;3.90;;;16.80;99.90;;;;;;4946452;29;20125;-59
2022/05/16 04:52:55;;;;;;;9.02;3.60;;;16.50;99.90;;;;;;4946689;29;20055;-58
2022/05/16 04:55:21;;;;;;;8.23;3.33;;;16.40;99.90;;;;;;4946531;29;20237;-58
2022/05/16 04:57:47;;;;;;;11.23;3.38;;;16.20;99.90;;;;;;4946365;29;20329;-58
2022/05/16 05:00:14;;;;;;;10.50;3.50;;;16.10;99.90;;;;;;4913699;29;20047;-58
2022/05/16 05:02:40;;;;;;;11.48;3.72;;;15.90;99.90;;;;;;4945966;29;20051;-58
2022/05/16 05:05:08;;;;;;;9.77;3.70;;;16.30;99.90;;;;;;4946398;29;20054;-58
2022/05/16 05:07:35;;;;;;;8.13;3.75;;;17.30;98.90;;;;;;4946277;29;20039;-59
2022/05/16 05:15:30;;;;;;;12.13;3.83;;;18.20;99.90;;;;;;4945950;29;20039;-62
2022/05/16 05:17:56;;;;;;;11.98;3.95;;;18.00;99.80;;;;;;4945862;29;20386;-62
2022/05/16 05:20:22;;;;;;;16.25;4.30;;;17.80;99.50;;;;;;4945992;29;20340;-62
2022/05/16 05:22:48;;;;;;;12.60;3.75;;;17.90;98.60;;;;;;4929214;29;20052;-59
2022/05/16 05:25:18;;;;;;;9.38;3.47;;;18.40;98.90;;;;;;4946084;29;20071;-58
2022/05/16 05:27:46;;;;;;;12.98;4.05;;;18.20;98.90;;;;;;4945872;29;20067;-58
2022/05/16 05:30:16;;;;;;;8.60;3.47;;;18.70;97.50;;;;;;4946177;29;20039;-59
2022/05/16 05:32:42;;;;;;;11.82;3.60;;;19.10;94.70;;;;;;4945457;29;20103;-59
2022/05/16 05:35:09;;;;;;;11.68;4.00;;;19.80;91.40;;;;;;4946053;29;20086;-59
2022/05/16 05:37:35;;;;;;;9.68;3.72;;;20.50;89.00;;;;;;4945518;29;20036;-59
2022/05/16 05:40:02;;;;;;;11.85;3.80;;;21.60;84.30;;;;;;4945661;29;20092;-59
2022/05/16 05:42:28;;;;;;;12.95;3.63;;;22.60;79.80;;;;;;4945821;29;20055;-59
2022/05/16 05:44:54;;;;;;;10.68;3.80;;;22.90;75.30;;;;;;4928332;29;20322;-59
2022/05/16 05:47:20;;;;;;;12.32;3.83;;;23.20;60.90;;;;;;4945026;29;20038;-63
2022/05/16 05:49:46;;;;;;;14.25;4.00;;;23.60;70.90;;;;;;4945589;29;20051;-63
2022/05/16 05:52:12;;;;;;;9.68;3.83;;;25.00;69.50;;;;;;4945407;29;20263;-63
2022/05/16 05:54:38;;;;;;;9.63;3.50;;;;;;;;;;4945390;29;20027;-63
2022/05/16 05:57:06;;;;;;;14.15;3.28;;;24.40;65.80;;;;;;4928590;29;20051;-64
2022/05/16 05:59:32;;;;;;;13.60;3.50;;;24.10;68.00;;;;;;4944692;29;20039;-64
2022/05/16 06:01:58;;;;;;;11.68;3.60;;;;;;;;;;4945369;29;20032;-64
2022/05/16 06:04:24;;;;;;;10.30;3.50;;;24.00;66.20;;;;;;4945296;29;20040;-64
2022/05/16 06:06:49;;;;;;;13.85;3.90;;;23.90;65.80;;;;;;4928359;29;20152;-64
2022/05/16 06:09:15;;;;;;;13.30;3.88;;;23.00;67.80;;;;;;4928161;29;20046;-63
2022/05/16 06:11:41;;;;;;;9.52;3.40;;;22.20;70.70;;;;;;4944997;29;20213;-63
2022/05/16 06:14:06;;;;;;;11.23;3.63;;;21.60;72.80;;;;;;4927754;29;20322;-64
2022/05/16 06:16:32;;;;;;;14.25;3.90;;;21.40;73.10;;;;;;4944836;29;20254;-63
2022/05/16 06:18:58;;;;;;;11.98;3.50;;;21.30;73.00;;;;;;4944863;29;20043;-64
2022/05/16 06:21:24;;;;;;;9.38;3.80;;;22.30;71.60;;;;;;4944655;29;20057;-59
2022/05/16 06:23:50;;;;;;;16.02;3.63;;;23.30;61.30;;;;;;4924804;29;20091;-58
2022/05/16 06:26:16;;;;;;;12.93;3.80;;;22.80;68.10;;;;;;4925935;29;20278;-58
2022/05/16 06:28:41;;;;;;;13.30;3.60;;;24.90;66.30;;;;;;4924165;29;20039;-59
2022/05/16 06:31:08;;;;;;;8.18;3.50;;;25.10;64.00;;;;;;4924865;29;20402;-59
2022/05/16 06:33:34;;;;;;;7.32;3.60;;;25.40;62.40;;;;;;4925718;29;20066;-59
2022/05/16 06:36:01;;;;;;;18.50;3.80;;;26.00;56.50;;;;;;4926030;29;20040;-59
2022/05/16 06:38:30;;;;;;;10.07;3.45;;;25.80;49.10;;;;;;4925375;29;20377;-59
2022/05/16 06:40:57;;;;;;;10.88;3.40;;;26.10;48.60;;;;;;4925861;29;20047;-59
2022/05/16 06:43:25;;;;;;;10.30;3.50;;;26.40;59.20;;;;;;4908186;29;20107;-59
2022/05/16 06:45:51;;;;;;;14.40;3.72;;;26.90;58.10;;;;;;4917890;29;20040;-59
2022/05/16 06:48:17;;;;;;;11.50;3.80;;;27.30;57.80;;;;;;4920377;29;20059;-59
2022/05/16 06:50:45;;;;;;;13.73;3.65;;;27.10;56.50;;;;;;4925599;29;20294;-59
2022/05/16 06:53:26;;;;;;;10.68;3.47;;;26.90;45.50;;;;;;4925720;29;20036;-59
2022/05/16 06:55:52;;;;;;;9.07;3.55;;;27.00;56.80;;;;;;4908770;29;20047;-59
2022/05/16 06:58:19;;;;;;;12.57;3.47;;;;;;;;;;4931634;29;20058;-59
2022/05/16 07:00:45;;;;;;;14.60;3.88;;;26.60;56.20;;;;;;4937380;29;20048;-65
2022/05/16 07:03:12;;;;;;;14.18;3.83;;;26.20;56.20;;;;;;4924125;29;20067;-65
2022/05/16 07:05:38;;;;;;;12.00;3.40;;;26.00;56.70;;;;;;4935162;29;20245;-59
2022/05/16 07:08:05;;;;;;;11.15;3.50;;;25.90;57.30;;;;;;4936221;29;20043;-59
2022/05/16 07:10:31;;;;;;;14.85;3.58;;;25.90;57.70;;;;;;4933551;29;20103;-59
2022/05/16 07:12:57;;;;;;;10.55;3.45;;;25.00;57.10;;;;;;4931086;29;20035;-59
2022/05/16 07:15:23;;;;;;;11.13;3.80;;;25.00;59.10;;;;;;4932069;29;20239;-64
2022/05/16 07:17:49;;;;;;;13.48;3.50;;;25.50;59.70;;;;;;4943236;29;20139;-65
2022/05/16 07:20:15;;;;;;;11.63;3.42;;;24.30;60.70;;;;;;4943372;29;20047;-64
2022/05/16 07:22:45;;;;;;;11.60;3.40;;;24.80;61.80;;;;;;4943565;29;20202;-65
2022/05/16 07:25:13;;;;;;;18.40;3.72;;;24.40;50.80;;;;;;4959533;29;20079;-64
2022/05/16 07:27:56;;;;;;;12.30;3.90;;;23.70;62.00;;;;;;4941102;29;20079;-65
2022/05/16 07:30:25;;;;;;;10.68;3.38;;;23.80;64.00;;;;;;4924155;29;20042;-62
2022/05/16 07:32:52;;;;;;;9.23;3.28;;;23.70;64.10;;;;;;4924696;29;20039;-59
2022/05/16 07:35:25;;;;;;;27.10;3.92;;;23.50;64.80;;;;;;4933106;29;20027;-60
2022/05/16 07:37:53;;;;;;;15.20;3.50;;;23.30;64.90;;;;;;4916735;29;20374;-60
2022/05/16 07:40:24;;;;;;;13.88;3.17;;;23.70;65.60;;;;;;4928757;29;20047;-60
2022/05/16 07:42:50;;;;;;;13.57;3.40;;;23.40;65.70;;;;;;4924736;29;20040;-59
2022/05/16 07:45:16;;;;;;;7.95;3.03;;;23.90;65.50;;;;;;4908305;29;20040;-59
2022/05/16 07:47:42;;;;;;;14.90;3.63;;;23.90;65.40;;;;;;4924749;29;20040;-59
2022/05/16 07:50:09;;;;;;;13.73;3.65;;;23.90;65.00;;;;;;4892698;29;20035;-59
2022/05/16 07:52:36;;;;;;;25.25;3.80;;;23.40;65.70;;;;;;4924692;29;20036;-59
2022/05/16 07:55:02;;;;;;;11.82;3.10;;;23.50;65.70;;;;;;4924911;29;20028;-59
2022/05/16 07:57:27;;;;;;;13.55;3.50;;;22.80;66.30;;;;;;4908465;29;20143;-59
2022/05/16 07:59:53;;;;;;;11.15;3.30;;;23.00;66.40;;;;;;4963736;29;20039;-59
2022/05/16 08:02:19;;;;;;;15.07;3.55;;;22.20;66.40;;;;;;4963177;29;20380;-59
2022/05/16 08:04:44;;;;;;;8.95;3.30;;;23.50;67.50;;;;;;4962779;29;20086;-59
2022/05/16 08:07:10;;;;;;;11.45;3.30;;;22.90;66.40;;;;;;4963102;29;20368;-59
2022/05/16 08:12:29;;;;;;;19.13;3.47;;;23.60;65.40;;;;;;4949360;29;20043;-60
2022/05/16 08:14:55;;;;;;;12.25;3.38;;;23.40;64.80;;;;;;4949333;29;20078;-59
2022/05/16 08:17:21;;;;;;;10.68;3.50;;;23.60;64.90;;;;;;4966761;29;20035;-59
2022/05/16 08:19:47;;;;;;;11.30;3.30;;;23.80;55.50;;;;;;4966273;29;20035;-59
2022/05/16 08:22:13;;;;;;;26.20;3.60;;;23.40;64.80;;;;;;4949674;29;20094;-59
2022/05/16 08:24:38;;;;;;;17.17;3.20;;;23.70;65.00;;;;;;4948472;29;20348;-59
2022/05/16 08:27:04;;;;;;;11.82;3.22;;;24.00;64.50;;;;;;4933150;29;20046;-59
2022/05/16 08:29:31;;;;;;;13.70;3.75;;;23.70;63.60;;;;;;4966016;29;20114;-59
2022/05/16 08:31:57;;;;;;;15.80;3.50;;;24.40;56.30;;;;;;4966717;29;20262;-59
2022/05/16 08:34:25;;;;;;;15.93;3.60;;;24.30;65.20;;;;;;4965740;29;20039;-59
2022/05/16 08:42:28;;;;;;;13.50;3.70;;;24.40;65.30;;;;;;4966257;29;20043;-59
2022/05/16 08:45:11;;;;;;;9.18;3.25;;;24.10;63.00;;;;;;4949181;29;20058;-59
2022/05/16 08:47:37;;;;;;;10.57;4.15;;;24.50;54.20;;;;;;4965691;29;20043;-59
2022/05/16 08:50:15;;;;;;;9.50;3.47;;;24.70;54.70;;;;;;4966060;29;20051;-59
2022/05/16 08:53:05;;;;;;;7.90;3.42;;;25.00;64.50;;;;;;4946085;29;20051;-59
2022/05/16 08:55:45;;;;;;;10.38;3.22;;;25.20;61.40;;;;;;4945996;29;20128;-59
2022/05/16 08:58:19;;;;;;;12.63;3.58;;;25.40;62.60;;;;;;4935303;29;20043;-59
2022/05/16 09:01:03;;;;;;;9.75;3.42;;;25.80;61.90;;;;;;4965684;29;20046;-59
2022/05/16 09:03:55;;;;;;;11.15;3.33;;;26.00;61.30;;;;;;4948813;29;20046;-59
2022/05/16 09:06:26;;;;;;;12.25;3.40;;;26.60;60.10;;;;;;4964977;29;20042;-59
2022/05/16 09:09:11;;;;;;;11.50;3.55;;;26.20;60.50;;;;;;4964662;29;20094;-60
2022/05/16 09:11:37;;;;;;;10.23;3.25;;;;;;;;;;4948388;29;20264;-60
2022/05/16 09:14:07;;;;;;;9.35;3.17;;;26.30;59.30;;;;;;4965295;29;20067;-60
2022/05/16 09:16:49;;;;;;;11.40;3.75;;;26.30;51.80;;;;;;4965348;29;20043;-59
2022/05/16 09:19:30;;;;;;;11.75;3.42;;;26.40;51.70;;;;;;4947833;29;20035;-59
2022/05/16 09:22:09;;;;;;;18.05;3.50;;;26.10;51.80;;;;;;4964073;28;20039;-59
2022/05/16 09:24:41;;;;;;;12.75;3.40;;;26.10;51.80;;;;;;4964072;29;20106;-61
2022/05/16 09:30:23;;;;;;;14.13;3.75;;;26.00;52.10;;;;;;4965007;29;20050;-61
2022/05/16 09:32:54;;;;;;;12.07;3.60;;;25.90;52.20;;;;;;4947988;29;20039;-61
2022/05/16 09:35:26;;;;;;;15.85;3.33;;;25.50;60.50;;;;;;4964675;29;20074;-61
2022/05/16 09:37:54;;;;;;;11.27;3.30;;;25.80;53.10;;;;;;4964370;29;20047;-61
2022/05/16 09:40:24;;;;;;;17.77;3.47;;;26.20;62.90;;;;;;4964340;29;20039;-62
2022/05/16 09:42:52;;;;;;;9.75;3.58;;;25.40;59.70;;;;;;4964230;29;20061;-61
2022/05/16 09:45:24;;;;;;;10.20;3.00;;;26.10;52.90;;;;;;4965989;29;20428;-61
2022/05/16 09:47:50;;;;;;;10.68;3.45;;;26.00;59.20;;;;;;4964524;29;20067;-61
2022/05/16 09:50:25;;;;;;;10.05;3.40;;;26.20;52.30;;;;;;4964268;29;20309;-61
2022/05/16 09:53:09;;;;;;;9.13;3.25;;;26.30;52.10;;;;;;4964232;29;20093;-61
2022/05/16 09:55:43;;;;;;;11.52;3.67;;;26.40;58.10;;;;;;4964215;29;20034;-62
2022/05/16 09:58:25;;;;;;;12.38;3.58;;;26.00;58.50;;;;;;4964307;29;20050;-61
2022/05/16 10:00:58;;;;;;;15.25;3.78;;;27.00;59.20;;;;;;4964782;29;20035;-61
2022/05/16 10:03:42;;;;;;;14.30;3.60;;;25.80;56.80;;;;;;4963935;29;20035;-62
2022/05/16 10:06:29;;;;;;;7.13;3.30;;;26.60;51.20;;;;;;4963790;29;20110;-61
2022/05/16 10:08:55;;;;;;;14.45;3.65;;;26.70;51.20;;;;;;4963624;28;20194;-61
2022/05/16 10:11:27;;;;;;;8.63;3.45;;;26.80;55.10;;;;;;4964237;29;20066;-61
2022/05/16 10:13:55;;;;;;;15.70;3.55;;;27.50;64.70;;;;;;4964119;29;20098;-62
2022/05/16 10:16:24;;;;;;;12.43;3.75;;;27.10;50.10;;;;;;4964034;29;20026;-61
2022/05/16 10:18:53;;;;;;;18.88;3.95;;;27.50;49.90;;;;;;4963999;29;20039;-60
2022/05/16 10:21:27;;;;;;;16.23;3.30;;;27.60;49.20;;;;;;4959576;29;20326;-60
2022/05/16 10:23:53;;;;;;;8.30;3.72;;;27.70;49.60;;;;;;4945033;29;20107;-61
2022/05/16 10:26:23;;;;;;;7.25;3.28;;;27.90;49.00;;;;;;4944429;29;20338;-61
2022/05/16 10:29:23;;;;;;;13.13;3.95;;;27.80;48.20;;;;;;4944524;29;20271;-61
2022/05/16 10:34:54;;;;;;;13.52;3.45;;;27.80;48.70;;;;;;4927334;29;20058;-61
2022/05/16 10:37:21;;;;;;;10.55;3.80;;;27.80;48.70;;;;;;4944731;29;20229;-60
2022/05/16 10:39:59;;;;;;;12.15;3.70;;;27.80;48.70;;;;;;4927468;29;20043;-60
2022/05/16 10:42:49;;;;;;;11.63;3.40;;;27.60;48.50;;;;;;4927351;29;20225;-61
2022/05/16 10:45:22;;;;;;;12.75;3.20;;;27.60;49.10;;;;;;4929950;29;20178;-60
2022/05/16 10:48:14;;;;;;;14.18;3.50;;;27.70;49.20;;;;;;4927506;29;20043;-59
2022/05/16 10:50:53;;;;;;;8.90;3.80;;;27.80;49.00;;;;;;4943958;29;20304;-59
2022/05/16 10:53:36;;;;;;;11.00;3.53;;;27.80;49.10;;;;;;4927244;29;20034;-58
2022/05/16 10:56:34;;;;;;;14.35;3.83;;;27.80;49.30;;;;;;4927056;29;20252;-60
2022/05/16 10:59:05;;;;;;;12.75;3.90;;;27.80;49.20;;;;;;4927306;29;20071;-61
2022/05/16 11:01:41;;;;;;;13.75;3.83;;;27.70;49.40;;;;;;4944212;29;20040;-61
2022/05/16 11:04:34;;;;;;;12.05;3.67;;;27.60;49.40;;;;;;4943699;29;20031;-61
2022/05/16 11:07:07;;;;;;;13.48;3.53;;;27.50;49.70;;;;;;4943979;29;20048;-58
2022/05/16 11:09:39;;;;;;;16.42;3.40;;;27.40;50.10;;;;;;4940742;29;20111;-60
2022/05/16 11:12:14;;;;;;;18.27;3.95;;;27.40;50.20;;;;;;4917181;29;20035;-59
2022/05/16 11:14:58;;;;;;;16.73;3.90;;;27.30;50.50;;;;;;4940233;29;20059;-61
2022/05/16 11:17:52;;;;;;;11.10;3.70;;;27.20;50.90;;;;;;4943511;29;20143;-62
2022/05/16 11:20:25;;;;;;;16.05;4.10;;;27.10;51.00;;;;;;4947682;23;20144;-61
2022/05/16 11:22:57;;;;;;;12.85;3.88;;;26.90;51.50;;;;;;4914802;29;20088;-62
2022/05/16 11:25:48;;;;;;;17.80;3.88;;;26.80;52.00;;;;;;4915139;29;20083;-61
2022/05/16 11:28:33;;;;;;;8.48;3.58;;;26.70;52.40;;;;;;4915238;29;20076;-60
2022/05/16 11:31:07;;;;;;;11.82;3.58;;;26.60;53.00;;;;;;4914831;29;20056;-60
2022/05/16 11:33:47;;;;;;;14.98;4.07;;;26.50;54.60;;;;;;4914899;29;20079;-60
2022/05/16 11:36:15;;;;;;;8.60;3.58;;;26.80;56.10;;;;;;4914704;29;20040;-60
2022/05/16 11:38:57;;;;;;;8.73;3.70;;;26.30;56.40;;;;;;4914968;29;20164;-60
2022/05/16 11:42:00;;;;;;;13.65;4.03;;;26.30;57.00;;;;;;4897576;29;20429;-62
2022/05/16 11:45:00;;;;;;;13.93;4.35;;;26.10;57.60;;;;;;4889459;29;20095;-60
2022/05/16 11:48:04;;;;;;;12.07;4.05;;;26.00;59.30;;;;;;4918846;29;20040;-61
2022/05/16 11:50:45;;;;;;;12.77;4.28;;;25.80;61.30;;;;;;4911175;29;20114;-61
2022/05/16 11:53:40;;;;;;;12.43;4.00;;;25.70;63.00;;;;;;4935644;29;20487;-60
2022/05/16 12:01:36;;;;;;;13.70;4.20;;;25.20;68.50;;;;;;4935240;29;20510;-60
2022/05/16 12:04:18;;;;;;;15.15;4.75;;;25.10;71.10;;;;;;4935902;29;20051;-60
2022/05/16 12:06:48;;;;;;;13.52;4.72;;;25.10;73.50;;;;;;4936280;29;20044;-61
2022/05/16 12:09:17;;;;;;;26.45;5.40;;;25.00;73.80;;;;;;4919052;29;20099;-61
2022/05/16 12:12:08;;;;;;;21.05;5.28;;;25.00;77.60;;;;;;4936029;29;20086;-62
2022/05/16 12:14:39;;;;;;;18.20;4.20;;;25.00;78.10;;;;;;4935798;29;20036;-61
2022/05/16 12:17:08;;;;;;;17.42;4.60;;;25.00;79.60;;;;;;4935785;29;20054;-61
2022/05/16 12:19:34;;;;;;;13.05;4.40;;;24.90;79.80;;;;;;4936066;29;20075;-60
2022/05/16 12:22:18;;;;;;;14.98;4.13;;;24.90;79.00;;;;;;4935930;29;20134;-61
2022/05/16 12:24:53;;;;;;;10.48;4.35;;;24.90;81.10;;;;;;4935925;29;20063;-61
2022/05/16 12:27:30;;;;;;;13.68;4.28;;;25.00;80.60;;;;;;4918722;29;20368;-61
2022/05/16 12:29:59;;;;;;;14.02;4.43;;;25.00;80.10;;;;;;4935730;29;20463;-61
2022/05/16 12:32:30;;;;;;;14.60;4.07;;;25.10;80.10;;;;;;4935567;29;20086;-61
2022/05/16 12:35:02;;;;;;;10.82;3.95;;;25.00;79.00;;;;;;4935813;29;20115;-60
2022/05/16 12:37:27;;;;;;;9.77;3.88;;;25.20;77.00;;;;;;4918212;29;20048;-61
2022/05/16 12:40:06;;;;;;;14.75;3.92;;;25.30;76.60;;;;;;4935439;29;20344;-61
2022/05/16 12:42:40;;;;;;;13.40;3.40;;;25.40;75.30;;;;;;4917877;29;20051;-61
2022/05/16 12:45:24;;;;;;;7.97;3.33;;;25.50;73.90;;;;;;4958373;23;20059;-80
2022/05/16 12:48:15;;;;;;;11.00;3.47;;;25.70;74.40;;;;;;4919393;29;20039;-80
2022/05/16 12:51:28;;;;;;;11.18;3.42;;;25.80;70.90;;;;;;4903260;29;20094;-82
2022/05/16 12:54:27;;;;;;;10.85;3.47;;;24.00;69.60;;;;;;4835997;29;20149;-81
2022/05/16 12:56:55;;;;;;;7.75;3.20;;;26.00;69.20;;;;;;4810293;29;20082;-80
2022/05/16 12:59:56;;;;;;;7.07;3.05;;;27.80;70.70;;;;;;4808415;29;20062;-80
2022/05/16 13:02:26;;;;;;;9.70;3.00;;;25.30;66.90;;;;;;4799926;29;20042;-82
2022/05/16 13:05:09;;;;;;;14.38;3.35;;;25.90;68.30;;;;;;4855221;29;20114;-79
2022/05/16 13:08:06;;;;;;;10.13;3.40;;;25.80;67.60;;;;;;4833010;29;20050;-79
2022/05/16 13:10:54;;;;;;;10.07;3.50;;;24.40;66.10;;;;;;4813992;29;20062;-80
2022/05/16 13:13:56;;;;;;;14.05;3.15;;;25.70;66.20;;;;;;4837151;29;20126;-79
2022/05/16 13:16:30;;;;;;;8.98;2.92;;;25.70;66.50;;;;;;4821890;29;20099;-79
2022/05/16 13:19:09;;;;;;;15.80;3.53;;;24.00;65.60;;;;;;4806079;29;20062;-80
2022/05/16 13:21:40;;;;;;;10.10;3.13;;;25.50;66.70;;;;;;4821403;29;20107;-79
2022/05/16 13:24:12;;;;;;;9.48;3.35;;;24.70;67.30;;;;;;4830659;29;20052;-80
2022/05/16 13:29:33;;;;;;;11.25;3.17;;;26.90;68.20;;;;;;4916302;29;20067;-80
2022/05/16 13:32:06;;;;;;;14.30;3.50;;;25.40;67.40;;;;;;4899316;29;20048;-78
2022/05/16 13:34:38;;;;;;;5.65;2.80;;;25.30;67.80;;;;;;4880595;29;20080;-80
2022/05/16 13:37:08;;;;;;;9.27;3.30;;;25.40;68.20;;;;;;4897427;29;20043;-81
2022/05/16 13:39:42;;;;;;;20.35;4.18;;;27.70;70.40;;;;;;4883976;29;20088;-80
2022/05/16 13:42:09;;;;;;;10.73;3.58;;;27.90;70.30;;;;;;4868175;29;20095;-79